Time;durP1;ratioP1;P1;durP2;ratioP2;P2;SDS_P1;SDS_P2;PMS_P1;PMS_P2;Temp;Humidity;BMP_temperature;BMP_pressure;BME280_temperature;BME280_humidity;BME280_pressure;Samples;Min_cycle;Max_cycle;Signal;HPM_P1;HPM_P2
2019/04/05 00:01:13;;;;;;;3.4;3;;;;;;;;;;;;;
2019/04/05 00:03:37;;;;;;;3.2;2.9;;;;;;;;;;;;;
2019/04/05 00:06:02;;;;;;;3.4;3.1;;;;;;;;;;;;;
2019/04/05 00:08:30;;;;;;;1.9;1.8;;;;;;;;;;;;;
2019/04/05 00:10:52;;;;;;;3.2;2.9;;;;;;;;;;;;;
2019/04/05 00:13:18;;;;;;;3.1;2.8;;;;;;;;;;;;;
2019/04/05 00:15:43;;;;;;;3.2;2.9;;;;;;;;;;;;;
2019/04/05 00:18:08;;;;;;;2.5;2.3;;;;;;;;;;;;;
2019/04/05 00:20:33;;;;;;;3.3;3;;;;;;;;;;;;;
2019/04/05 00:22:58;;;;;;;3;2.7;;;;;;;;;;;;;
2019/04/05 00:25:23;;;;;;;2.6;2.4;;;;;;;;;;;;;
2019/04/05 00:27:48;;;;;;;3.2;2.7;;;;;;;;;;;;;
2019/04/05 00:30:13;;;;;;;2.7;2.5;;;;;;;;;;;;;
2019/04/05 00:32:39;;;;;;;2.9;2.6;;;;;;;;;;;;;
2019/04/05 00:35:04;;;;;;;2.6;2.4;;;;;;;;;;;;;
2019/04/05 00:37:29;;;;;;;2.2;2;;;;;;;;;;;;;
2019/04/05 00:39:54;;;;;;;2.7;2.5;;;;;;;;;;;;;
2019/04/05 00:42:19;;;;;;;2.8;2.6;;;;;;;;;;;;;
2019/04/05 00:44:45;;;;;;;2.7;2.5;;;;;;;;;;;;;
2019/04/05 00:47:10;;;;;;;3.2;2.9;;;;;;;;;;;;;
2019/04/05 00:49:35;;;;;;;3.9;3.6;;;;;;;;;;;;;
2019/04/05 00:52:00;;;;;;;4.3;3.9;;;;;;;;;;;;;
2019/04/05 00:54:25;;;;;;;4.1;3.8;;;;;;;;;;;;;
2019/04/05 00:56:50;;;;;;;4.7;4.3;;;;;;;;;;;;;
2019/04/05 00:59:15;;;;;;;5.3;4.8;;;;;;;;;;;;;
2019/04/05 01:01:41;;;;;;;5.7;5.1;;;;;;;;;;;;;
2019/04/05 01:04:06;;;;;;;6.1;5.6;;;;;;;;;;;;;
2019/04/05 01:06:31;;;;;;;6.2;5.6;;;;;;;;;;;;;
2019/04/05 01:08:57;;;;;;;6.7;6.1;;;;;;;;;;;;;
2019/04/05 01:11:22;;;;;;;7;6.4;;;;;;;;;;;;;
2019/04/05 01:13:47;;;;;;;8.4;7.6;;;;;;;;;;;;;
2019/04/05 01:16:12;;;;;;;8.7;7.9;;;;;;;;;;;;;
2019/04/05 01:18:38;;;;;;;8.7;7.9;;;;;;;;;;;;;
2019/04/05 01:21:03;;;;;;;11.2;10.1;;;;;;;;;;;;;
2019/04/05 01:23:28;;;;;;;12.7;11.4;;;;;;;;;;;;;
2019/04/05 01:25:53;;;;;;;12.4;11.2;;;;;;;;;;;;;
2019/04/05 01:28:19;;;;;;;12.7;11.5;;;;;;;;;;;;;
2019/04/05 01:30:44;;;;;;;15.3;13.8;;;;;;;;;;;;;
2019/04/05 01:33:09;;;;;;;13.3;12;;;;;;;;;;;;;
2019/04/05 01:35:34;;;;;;;15.1;13.6;;;;;;;;;;;;;
2019/04/05 01:37:59;;;;;;;12.5;11.3;;;;;;;;;;;;;
2019/04/05 01:40:24;;;;;;;11.5;10.4;;;;;;;;;;;;;
2019/04/05 01:42:49;;;;;;;11.6;10.5;;;;;;;;;;;;;
2019/04/05 01:45:14;;;;;;;12.9;11.6;;;;;;;;;;;;;
2019/04/05 01:47:39;;;;;;;12.4;11.2;;;;;;;;;;;;;
2019/04/05 01:50:07;;;;;;;12.1;10.9;;;;;;;;;;;;;
2019/04/05 01:52:30;;;;;;;11.3;10.1;;;;;;;;;;;;;
2019/04/05 01:54:55;;;;;;;12;10.8;;;;;;;;;;;;;
2019/04/05 01:57:20;;;;;;;11.3;10.2;;;;;;;;;;;;;
2019/04/05 01:59:45;;;;;;;12.3;11.1;;;;;;;;;;;;;
2019/04/05 02:02:13;;;;;;;12;10.8;;;;;;;;;;;;;
2019/04/05 02:04:36;;;;;;;11.7;10.6;;;;;;;;;;;;;
2019/04/05 02:07:01;;;;;;;11.7;10.6;;;;;;;;;;;;;
2019/04/05 02:09:26;;;;;;;13.3;12;;;;;;;;;;;;;
2019/04/05 02:11:53;;;;;;;11.7;10.6;;;;;;;;;;;;;
2019/04/05 02:14:16;;;;;;;12.4;11.2;;;;;;;;;;;;;
2019/04/05 02:16:41;;;;;;;13.2;11.9;;;;;;;;;;;;;
2019/04/05 02:19:06;;;;;;;14.5;13;;;;;;;;;;;;;
2019/04/05 02:21:32;;;;;;;14.9;13.3;;;;;;;;;;;;;
2019/04/05 02:23:57;;;;;;;15.2;12.9;;;;;;;;;;;;;
2019/04/05 02:26:22;;;;;;;13.8;12.4;;;;;;;;;;;;;
2019/04/05 02:28:47;;;;;;;19.4;17.4;;;;;;;;;;;;;
2019/04/05 02:31:12;;;;;;;20;17.8;;;;;;;;;;;;;
2019/04/05 02:33:40;;;;;;;19.6;17.6;;;;;;;;;;;;;
2019/04/05 02:36:02;;;;;;;18.8;16.9;;;;;;;;;;;;;
2019/04/05 02:38:27;;;;;;;15.7;14;;;;;;;;;;;;;
2019/04/05 02:40:52;;;;;;;18.8;16.9;;;;;;;;;;;;;
2019/04/05 02:43:17;;;;;;;18.1;16.3;;;;;;;;;;;;;
2019/04/05 02:45:42;;;;;;;18.8;16.9;;;;;;;;;;;;;
2019/04/05 02:48:07;;;;;;;16.8;15.1;;;;;;;;;;;;;
2019/04/05 02:50:33;;;;;;;19.2;17.2;;;;;;;;;;;;;
2019/04/05 02:52:58;;;;;;;17.4;15.6;;;;;;;;;;;;;
2019/04/05 02:55:23;;;;;;;15;13.5;;;;;;;;;;;;;
2019/04/05 02:57:48;;;;;;;15.1;13.6;;;;;;;;;;;;;
2019/04/05 03:00:13;;;;;;;16.8;15.1;;;;;;;;;;;;;
2019/04/05 03:02:38;;;;;;;18;16.1;;;;;;;;;;;;;
2019/04/05 03:05:03;;;;;;;18.4;16.6;;;;;;;;;;;;;
2019/04/05 03:07:29;;;;;;;14;12.7;;;;;;;;;;;;;
2019/04/05 03:09:54;;;;;;;12.4;10.8;;;;;;;;;;;;;
2019/04/05 03:12:19;;;;;;;11.5;10.3;;;;;;;;;;;;;
2019/04/05 03:14:44;;;;;;;9.9;9;;;;;;;;;;;;;
2019/04/05 03:17:09;;;;;;;10;9.1;;;;;;;;;;;;;
2019/04/05 03:19:34;;;;;;;9;8.2;;;;;;;;;;;;;
2019/04/05 03:21:59;;;;;;;8.9;8.1;;;;;;;;;;;;;
2019/04/05 03:24:25;;;;;;;10.3;9.3;;;;;;;;;;;;;
2019/04/05 03:26:50;;;;;;;11.8;10.7;;;;;;;;;;;;;
2019/04/05 03:29:15;;;;;;;11.3;10.2;;;;;;;;;;;;;
2019/04/05 03:31:40;;;;;;;12.1;11;;;;;;;;;;;;;
2019/04/05 03:34:05;;;;;;;13.8;12.4;;;;;;;;;;;;;
2019/04/05 03:36:31;;;;;;;15.9;14.3;;;;;;;;;;;;;
2019/04/05 03:38:56;;;;;;;14.9;13.4;;;;;;;;;;;;;
2019/04/05 03:41:21;;;;;;;15.7;14.1;;;;;;;;;;;;;
2019/04/05 03:43:46;;;;;;;14.5;13.1;;;;;;;;;;;;;
2019/04/05 03:46:11;;;;;;;15.2;13.4;;;;;;;;;;;;;
2019/04/05 03:48:36;;;;;;;15.7;14.1;;;;;;;;;;;;;
2019/04/05 03:51:03;;;;;;;14.7;13.2;;;;;;;;;;;;;
2019/04/05 03:53:27;;;;;;;14.5;13.1;;;;;;;;;;;;;
2019/04/05 03:55:54;;;;;;;16;14.4;;;;;;;;;;;;;
2019/04/05 03:58:17;;;;;;;14.8;13.3;;;;;;;;;;;;;
2019/04/05 04:02:30;;;;;;;14.4;13;;;;;;;4.6;81.42773;925.3278;;;;
2019/04/05 04:04:58;;;;;;;12.8;11.6;;;;;;;4.61;80.5625;925.3267;;;;
2019/04/05 04:07:20;;;;;;;14.4;13;;;;;;;4.63;81.41992;925.2581;;;;
2019/04/05 04:09:50;;;;;;;11.7;10.6;;;;;;;4.58;79.76758;925.3086;;;;
2019/04/05 04:12:15;;;;;;;11.6;10.5;;;;;;;4.58;79.32813;925.2622;;;;
2019/04/05 04:14:40;;;;;;;13.1;11.8;;;;;;;4.62;79.64063;925.3259;;;;
2019/04/05 04:17:05;;;;;;;11.6;10.5;;;;;;;4.45;80.90332;925.3546;;;;
2019/04/05 04:19:30;;;;;;;10.5;9.4;;;;;;;4.26;80.81055;925.3253;;;;
2019/04/05 04:21:55;;;;;;;11.1;10;;;;;;;4.3;80.3584;925.3337;;;;
2019/04/05 04:24:21;;;;;;;12.1;10.9;;;;;;;4.35;80.875;925.35;;;;
2019/04/05 04:26:46;;;;;;;12;10.9;;;;;;;4.53;80.99609;925.2545;;;;
2019/04/05 04:29:11;;;;;;;12.1;10.9;;;;;;;4.74;79.76367;925.298;;;;
2019/04/05 04:31:36;;;;;;;11.1;9.9;;;;;;;4.82;78.54102;925.2991;;;;
2019/04/05 04:34:01;;;;;;;11.4;10.3;;;;;;;4.93;78.1543;925.3222;;;;
2019/04/05 04:36:26;;;;;;;12;10.8;;;;;;;5.15;77.6543;925.2936;;;;
2019/04/05 04:38:51;;;;;;;12;10.9;;;;;;;5.27;76.33301;925.3328;;;;
2019/04/05 04:41:17;;;;;;;11.9;10.7;;;;;;;5.1;76.8457;925.3445;;;;
2019/04/05 04:43:42;;;;;;;12.3;11.1;;;;;;;5.09;77.61816;925.3333;;;;
2019/04/05 04:46:07;;;;;;;12;10.8;;;;;;;5.22;76.55078;925.2575;;;;
2019/04/05 04:48:32;;;;;;;15.1;13.6;;;;;;;5.03;77.68945;925.2587;;;;
2019/04/05 04:50:57;;;;;;;13.2;11.9;;;;;;;5.09;78.48828;925.2994;;;;
2019/04/05 04:53:22;;;;;;;14.2;12.7;;;;;;;5.31;78.08984;925.3497;;;;
2019/04/05 04:55:47;;;;;;;15.4;13.8;;;;;;;5.5;76.89453;925.3278;;;;
2019/04/05 04:58:12;;;;;;;13.9;12.5;;;;;;;5.23;78.08594;925.3411;;;;
2019/04/05 05:00:38;;;;;;;13.7;12.3;;;;;;;5.1;79.25781;925.3192;;;;
2019/04/05 05:03:03;;;;;;;15.3;12.8;;;;;;;5;79.22656;925.3329;;;;
2019/04/05 05:05:28;;;;;;;13.8;11.6;;;;;;;4.88;79.71191;925.3225;;;;
2019/04/05 05:07:53;;;;;;;13.5;12.2;;;;;;;4.97;79.00586;925.2137;;;;
2019/04/05 05:10:35;;;;;;;13.3;12;;;;;;;4.97;79.34375;925.3864;;;;
2019/04/05 05:13:00;;;;;;;25.7;21.7;;;;;;;4.92;79.41602;925.3401;;;;
2019/04/05 05:15:25;;;;;;;15.6;14;;;;;;;5.1;78.11914;925.3737;;;;
2019/04/05 05:18:00;;;;;;;13.1;11.8;;;;;;;5.27;78.84863;925.358;;;;
2019/04/05 05:20:25;;;;;;;13.4;12.1;;;;;;;5.53;76.71875;925.4092;;;;
2019/04/05 05:22:59;;;;;;;13.3;12;;;;;;;5.36;78.30078;925.463;;;;
2019/04/05 05:25:15;;;;;;;13.9;12.5;;;;;;;5.26;77.58398;925.38;;;;
2019/04/05 05:27:40;;;;;;;14.6;12.6;;;;;;;5.18;77.89551;925.3791;;;;
2019/04/05 05:30:05;;;;;;;14.4;13;;;;;;;5.02;78.78125;925.3517;;;;
2019/04/05 05:32:31;;;;;;;14.9;13.1;;;;;;;4.75;80.67969;925.3477;;;;
2019/04/05 05:34:56;;;;;;;13.9;12.4;;;;;;;5.14;78.7666;925.3283;;;;
2019/04/05 05:37:22;;;;;;;12.6;11.4;;;;;;;5.05;78.97754;925.2944;;;;
2019/04/05 05:39:47;;;;;;;11.1;10.1;;;;;;;5.04;78.15332;925.2951;;;;
2019/04/05 05:42:12;;;;;;;11.1;10;;;;;;;4.96;79.25391;925.2941;;;;
2019/04/05 05:44:38;;;;;;;11.3;10.2;;;;;;;4.96;79.15039;925.2483;;;;
2019/04/05 05:47:03;;;;;;;12.7;11.5;;;;;;;4.85;79.58301;925.174;;;;
2019/04/05 05:49:28;;;;;;;10.6;9.6;;;;;;;5.08;77.79883;925.2961;;;;
2019/04/05 05:51:53;;;;;;;11.5;10.4;;;;;;;4.93;78.46973;925.3229;;;;
2019/04/05 05:54:18;;;;;;;11.6;10.4;;;;;;;5.07;78.20313;925.2756;;;;
2019/04/05 05:56:43;;;;;;;10.7;9.6;;;;;;;5.12;77.17578;925.317;;;;
2019/04/05 05:59:08;;;;;;;11.6;10.4;;;;;;;5.16;78.58008;925.3094;;;;
2019/04/05 06:01:33;;;;;;;10.3;9.2;;;;;;;5.27;76.65039;925.2863;;;;
2019/04/05 06:03:59;;;;;;;9;8.1;;;;;;;5.31;76.75684;925.2367;;;;
2019/04/05 06:06:24;;;;;;;8.4;7.6;;;;;;;5.26;75.65527;925.2372;;;;
2019/04/05 06:08:49;;;;;;;8.8;8;;;;;;;5.32;76.2959;925.1429;;;;
2019/04/05 06:11:14;;;;;;;7.9;7.1;;;;;;;5.44;75.61914;925.0857;;;;
2019/04/05 06:13:41;;;;;;;8.2;7.4;;;;;;;5.19;76.67969;925.1551;;;;
2019/04/05 06:16:04;;;;;;;8.4;7.6;;;;;;;5.41;74.59863;925.1889;;;;
2019/04/05 06:18:29;;;;;;;8.9;7.5;;;;;;;5.52;75.12402;925.2086;;;;
2019/04/05 06:20:55;;;;;;;7.4;6.7;;;;;;;5.49;75.0293;925.2534;;;;
2019/04/05 06:23:20;;;;;;;8.3;7.5;;;;;;;5.58;74.26758;925.3283;;;;
2019/04/05 06:25:45;;;;;;;7.5;6.7;;;;;;;5.47;74.7002;925.3473;;;;
2019/04/05 06:28:10;;;;;;;7.3;6.6;;;;;;;5.2;74.99121;925.3642;;;;
2019/04/05 06:30:35;;;;;;;7.7;6.9;;;;;;;5.63;74.34375;925.4292;;;;
2019/04/05 06:33:00;;;;;;;7.6;6.8;;;;;;;5.44;74.41211;925.5017;;;;
2019/04/05 06:35:25;;;;;;;8;7.3;;;;;;;5.17;76.20313;925.4263;;;;
2019/04/05 06:37:50;;;;;;;9.5;8.5;;;;;;;5.09;76.86426;925.4336;;;;
2019/04/05 06:40:19;;;;;;;8.7;7.4;;;;;;;5.55;74.37402;925.4283;;;;
2019/04/05 06:42:41;;;;;;;8.6;7.7;;;;;;;5.91;74.05176;925.4283;;;;
2019/04/05 06:45:06;;;;;;;8.5;7.7;;;;;;;6.33;73.11914;925.3244;;;;
2019/04/05 06:47:32;;;;;;;7.4;6.7;;;;;;;5.92;74.82324;925.4316;;;;
2019/04/05 06:49:58;;;;;;;8.1;7.3;;;;;;;6.13;73.02832;925.4575;;;;
2019/04/05 06:52:23;;;;;;;7.5;6.8;;;;;;;6.61;70.42969;925.3513;;;;
2019/04/05 06:54:48;;;;;;;7;6.4;;;;;;;6.79;69.48633;925.3455;;;;
2019/04/05 06:57:13;;;;;;;7.8;7;;;;;;;6.11;73.28516;925.2781;;;;
2019/04/05 06:59:39;;;;;;;7.6;6.9;;;;;;;6.24;72.98047;925.3833;;;;
2019/04/05 07:02:04;;;;;;;8.4;7.5;;;;;;;6.49;72.28809;925.3711;;;;
2019/04/05 07:04:29;;;;;;;7.4;6.7;;;;;;;6.36;73.57715;925.3711;;;;
2019/04/05 07:06:54;;;;;;;8;6.7;;;;;;;6.16;74.2666;925.4458;;;;
2019/04/05 07:09:19;;;;;;;7.1;6.4;;;;;;;5.92;76.43848;925.355;;;;
2019/04/05 07:11:44;;;;;;;7.3;6.6;;;;;;;6.02;75.92676;925.3077;;;;
2019/04/05 07:14:10;;;;;;;7.3;6.6;;;;;;;6.14;74.76074;925.351;;;;
2019/04/05 07:16:35;;;;;;;7.5;6.8;;;;;;;6.2;73.52637;925.3235;;;;
2019/04/05 07:19:00;;;;;;;7.7;6.5;;;;;;;6.01;72.86035;925.2922;;;;
2019/04/05 07:21:25;;;;;;;7.1;6.4;;;;;;;5.88;74.37598;925.2241;;;;
2019/04/05 07:23:53;;;;;;;7.5;6.7;;;;;;;5.97;73.92676;925.2162;;;;
2019/04/05 07:26:16;;;;;;;7.1;6.1;;;;;;;5.69;75.5625;925.2803;;;;
2019/04/05 07:28:41;;;;;;;5.6;5.1;;;;;;;5.93;72.91504;925.3163;;;;
2019/04/05 07:31:06;;;;;;;6;5.4;;;;;;;5.72;73.83984;925.2986;;;;
2019/04/05 07:33:31;;;;;;;5.5;5;;;;;;;5.91;74.08691;925.2933;;;;
2019/04/05 07:35:58;;;;;;;6.2;5;;;;;;;5.9;74.01758;925.1597;;;;
2019/04/05 07:38:23;;;;;;;6.4;5.6;;;;;;;5.47;76.4043;925.1451;;;;
2019/04/05 07:40:57;;;;;;;5.4;4.9;;;;;;;6.15;73.28125;925.1351;;;;
2019/04/05 07:43:23;;;;;;;5.4;4.9;;;;;;;6.24;72.33496;925.2528;;;;
2019/04/05 07:45:48;;;;;;;5.7;5.2;;;;;;;6.5;72.57129;925.2992;;;;
2019/04/05 07:48:13;;;;;;;5.5;5;;;;;;;6.43;72.05176;925.2555;;;;
2019/04/05 07:50:38;;;;;;;4.6;4.2;;;;;;;6.44;70.9209;925.3851;;;;
2019/04/05 07:53:04;;;;;;;5.1;4.5;;;;;;;6.66;71.16211;925.3546;;;;
2019/04/05 07:55:29;;;;;;;4.8;4.2;;;;;;;6.4;70.68848;925.2709;;;;
2019/04/05 07:57:54;;;;;;;4.3;3.9;;;;;;;6.9;70.79492;925.2209;;;;
2019/04/05 08:00:19;;;;;;;4.7;4.2;;;;;;;7.43;68.59082;925.2983;;;;
2019/04/05 08:07:08;;;;;;;4.8;4.3;;;;;;;7.3;67.23438;925.3075;;;;
2019/04/05 08:09:37;;;;;;;4.4;3.9;;;;;;;7.31;67.54102;925.378;;;;
2019/04/05 08:12:03;;;;;;;4.3;3.3;;;;;;;8.24;65.21191;925.3577;;;;
2019/04/05 08:14:29;;;;;;;3.2;2.9;;;;;;;8.91;61.52441;925.2656;;;;
2019/04/05 08:16:54;;;;;;;3.2;2.9;;;;;;;10.02;58.36621;925.2651;;;;
2019/04/05 08:19:19;;;;;;;2.3;2.1;;;;;;;12.17;51.46973;925.125;;;;
2019/04/05 08:21:44;;;;;;;2.4;2.2;;;;;;;13.97;46.10254;925.1911;;;;
2019/04/05 08:24:09;;;;;;;2.9;2.4;;;;;;;15.45;44.04199;925.1594;;;;
2019/04/05 08:26:34;;;;;;;1.2;1.1;;;;;;;15.45;39.36426;925.1811;;;;
2019/04/05 08:29:00;;;;;;;1.5;1.4;;;;;;;15.19;42.26172;925.1691;;;;
2019/04/05 08:31:25;;;;;;;1.7;1.6;;;;;;;15.65;39.92578;925.1636;;;;
2019/04/05 08:33:50;;;;;;;2.1;1.8;;;;;;;18.03;36.06543;925.0932;;;;
2019/04/05 08:36:15;;;;;;;1.6;1.5;;;;;;;16.62;38.72852;925.1933;;;;
2019/04/05 08:38:49;;;;;;;2.2;2;;;;;;;17.73;36.11133;925.1873;;;;
2019/04/05 08:41:15;;;;;;;1.9;1.8;;;;;;;15.22;39.44824;925.1091;;;;
2019/04/05 08:43:40;;;;;;;2;1.9;;;;;;;13.3;42.92773;925.1277;;;;
2019/04/05 08:46:05;;;;;;;1.6;1.5;;;;;;;12.48;46.08203;925.1255;;;;
2019/04/05 08:48:30;;;;;;;2.7;2.5;;;;;;;11.94;47.88086;925.2509;;;;
2019/04/05 08:50:55;;;;;;;3.2;2.9;;;;;;;12.17;46.79492;925.1674;;;;
2019/04/05 08:53:20;;;;;;;3.9;3.5;;;;;;;10.87;51.95605;925.2324;;;;
2019/04/05 08:55:45;;;;;;;3.8;3.4;;;;;;;10.54;53.45703;925.2709;;;;
2019/04/05 08:58:10;;;;;;;4;3.6;;;;;;;9.84;56.05078;925.2349;;;;
2019/04/05 09:00:35;;;;;;;6.1;3.9;;;;;;;9.95;56.32617;925.1671;;;;
2019/04/05 09:03:00;;;;;;;4;3.6;;;;;;;9.5;56.68848;925.2093;;;;
2019/04/05 09:05:26;;;;;;;4.4;4;;;;;;;9.57;56.41309;925.2358;;;;
2019/04/05 09:07:51;;;;;;;4.2;3.8;;;;;;;9.37;56.60352;925.1894;;;;
2019/04/05 09:10:16;;;;;;;4.6;3.8;;;;;;;9.5;56.44922;925.2435;;;;
2019/04/05 09:12:41;;;;;;;4.6;3.7;;;;;;;9.11;58.08398;925.2218;;;;
2019/04/05 09:15:06;;;;;;;4.5;4.1;;;;;;;8.8;59.92871;925.2135;;;;
2019/04/05 09:17:31;;;;;;;3.9;3.6;;;;;;;9.06;57.42676;925.1856;;;;
2019/04/05 09:19:56;;;;;;;3.5;3.2;;;;;;;8.8;57.29102;925.1325;;;;
2019/04/05 09:22:21;;;;;;;3.6;3.3;;;;;;;9.31;56.1416;925.1493;;;;
2019/04/05 09:24:46;;;;;;;4.2;3.8;;;;;;;9.32;57.40625;925.0594;;;;
2019/04/05 09:27:11;;;;;;;3.9;3.6;;;;;;;9.57;55.3877;925.0911;;;;
2019/04/05 09:29:37;;;;;;;4.7;3.8;;;;;;;9.49;55.82129;925.1379;;;;
2019/04/05 09:32:02;;;;;;;3.7;3.4;;;;;;;9.56;54.96484;925.0881;;;;
2019/04/05 09:34:27;;;;;;;4.3;3.9;;;;;;;9.74;55.18164;925.051;;;;
2019/04/05 09:36:52;;;;;;;6.2;3.5;;;;;;;9.86;56.22461;925.012;;;;
2019/04/05 09:39:17;;;;;;;3.5;3.2;;;;;;;9.83;56.20801;925.13;;;;
2019/04/05 09:41:42;;;;;;;3.7;3.3;;;;;;;9.37;57.61816;925.0916;;;;
2019/04/05 09:44:21;;;;;;;4.4;3.1;;;;;;;9.29;55.6377;925.0453;;;;
2019/04/05 09:46:46;;;;;;;2.3;2.1;;;;;;;9.33;53.66113;924.9951;;;;
2019/04/05 09:49:12;;;;;;;2.8;2.6;;;;;;;9.21;54.32813;925.0123;;;;
2019/04/05 09:51:37;;;;;;;3;2.5;;;;;;;9.62;54.1875;924.967;;;;
2019/04/05 09:54:02;;;;;;;3.3;3;;;;;;;9.61;57.96875;925.0315;;;;
2019/04/05 09:56:27;;;;;;;3;2.7;;;;;;;10.19;52.10254;924.9366;;;;
2019/04/05 11:09:37;;;;;;;3.2;2.9;;;;;;;10.79;51.04297;924.5413;;;;
2019/04/05 11:12:02;;;;;;;3.3;3;;;;;;;11.46;50.11621;924.5683;;;;
2019/04/05 11:14:27;;;;;;;3.5;3.1;;;;;;;11.87;48.41113;924.5701;;;;
2019/04/05 11:16:52;;;;;;;2.9;2.6;;;;;;;13.27;45.33887;924.5206;;;;
2019/04/05 11:19:18;;;;;;;5;2.7;;;;;;;15.78;37.5918;924.4386;;;;
2019/04/05 11:21:43;;;;;;;3.9;2.4;;;;;;;16.62;37.88379;924.4217;;;;
2019/04/05 11:24:08;;;;;;;3.1;2.2;;;;;;;18.39;34.24707;924.3781;;;;
2019/04/05 11:26:33;;;;;;;3.8;2.2;;;;;;;21.43;29.37988;924.3452;;;;
2019/04/05 11:28:58;;;;;;;2.9;2.4;;;;;;;19.34;30.74512;924.3488;;;;
2019/04/05 11:31:23;;;;;;;4.6;2.6;;;;;;;19.83;30.18359;924.288;;;;
2019/04/05 11:33:48;;;;;;;3.3;2.3;;;;;;;17.92;33.25781;924.3521;;;;
2019/04/05 11:36:13;;;;;;;2.6;2.4;;;;;;;16;35.70215;924.2937;;;;
2019/04/05 11:38:38;;;;;;;3.7;2.3;;;;;;;15.66;38.05566;924.3784;;;;
2019/04/05 11:41:04;;;;;;;3.4;2.6;;;;;;;15.15;39.10645;924.293;;;;
2019/04/05 11:43:29;;;;;;;3.9;2.7;;;;;;;14.45;41.16406;924.3439;;;;
2019/04/05 11:45:54;;;;;;;3;2.5;;;;;;;14.56;40.50586;924.2991;;;;
2019/04/05 11:48:19;;;;;;;4.2;2.7;;;;;;;14.61;39.09277;924.2792;;;;
2019/04/05 11:50:44;;;;;;;4.8;2.5;;;;;;;14.53;40.67676;924.3495;;;;
2019/04/05 11:53:09;;;;;;;3.1;2.3;;;;;;;14.48;39.46191;924.3103;;;;
2019/04/05 11:55:34;;;;;;;2.6;2.4;;;;;;;14.61;39.15039;924.228;;;;
2019/04/05 11:58:01;;;;;;;2.8;2.2;;;;;;;14.69;38.63867;924.2397;;;;
2019/04/05 12:00:31;;;;;;;2.7;2.1;;;;;;;14.1;39.80762;924.2101;;;;
2019/04/05 12:02:54;;;;;;;3.1;2.6;;;;;;;14.13;40.63867;924.2356;;;;
2019/04/05 12:05:16;;;;;;;3.8;2.7;;;;;;;13.8;43.85156;924.1973;;;;
2019/04/05 12:07:41;;;;;;;2.4;2.2;;;;;;;17.45;35.0791;924.2101;;;;
2019/04/05 12:10:06;;;;;;;2.9;2.2;;;;;;;21.23;27.82227;924.195;;;;
2019/04/05 12:12:31;;;;;;;3;2.4;;;;;;;22.4;26.69922;924.2499;;;;
2019/04/05 12:14:57;;;;;;;2.9;2.2;;;;;;;22.13;26.13184;924.1339;;;;
2019/04/05 12:17:22;;;;;;;2.4;2.2;;;;;;;21.02;27.16602;924.1509;;;;
2019/04/05 12:19:47;;;;;;;2.9;2.3;;;;;;;19.5;29.3457;924.1567;;;;
2019/04/05 12:22:12;;;;;;;2.4;2.2;;;;;;;18.48;30.61426;924.1248;;;;
2019/04/05 12:24:37;;;;;;;4.1;1.8;;;;;;;16.75;34.1543;924.0911;;;;
2019/04/05 12:27:02;;;;;;;4.3;2.4;;;;;;;14.8;39.57227;924.0488;;;;
2019/04/05 12:29:30;;;;;;;2.5;2.3;;;;;;;13.82;40.4834;924.0411;;;;
2019/04/05 12:31:53;;;;;;;2.7;2.5;;;;;;;12.54;45.60742;924.0497;;;;
2019/04/05 12:34:18;;;;;;;4.5;2.7;;;;;;;12.43;45.77734;924.0513;;;;
2019/04/05 12:36:43;;;;;;;2.8;2.6;;;;;;;12.82;44.95898;923.9684;;;;
2019/04/05 12:39:08;;;;;;;3.7;2.7;;;;;;;13.31;42.84863;924.0129;;;;
2019/04/05 12:41:33;;;;;;;3;2.7;;;;;;;13.14;44.39355;923.911;;;;
2019/04/05 12:43:58;;;;;;;3.3;2.7;;;;;;;12.48;46.19727;923.9208;;;;
2019/04/05 12:46:24;;;;;;;3.8;2.9;;;;;;;12.79;44.6123;923.9582;;;;
2019/04/05 12:48:50;;;;;;;4.1;2.9;;;;;;;12.84;44.66211;923.9615;;;;
2019/04/05 12:51:15;;;;;;;3.3;3;;;;;;;13.02;43.87793;923.9208;;;;
2019/04/05 12:53:40;;;;;;;3;2.8;;;;;;;12.98;44.40137;923.9352;;;;
2019/04/05 12:56:06;;;;;;;3.9;2.8;;;;;;;11.43;48.77344;923.8794;;;;
2019/04/05 12:58:30;;;;;;;3.6;2.6;;;;;;;11.59;48.71191;923.9315;;;;
2019/04/05 13:00:55;;;;;;;3.1;2.8;;;;;;;12.26;48.29395;923.9275;;;;
2019/04/05 13:03:21;;;;;;;3.5;2.6;;;;;;;12.56;46.5498;923.868;;;;
2019/04/05 13:05:46;;;;;;;3.1;2.8;;;;;;;12.66;44.71191;923.8439;;;;
2019/04/05 13:08:11;;;;;;;4;2.9;;;;;;;13.33;43.23047;923.8733;;;;
2019/04/05 13:10:40;;;;;;;3.3;3;;;;;;;12.96;44.89258;923.7886;;;;
2019/04/05 13:13:04;;;;;;;3.7;2.9;;;;;;;12.98;45.11328;923.9185;;;;
2019/04/05 13:15:27;;;;;;;3.5;2.9;;;;;;;13.54;44.32031;923.834;;;;
2019/04/05 13:17:52;;;;;;;2.9;2.7;;;;;;;13.03;45.17578;923.8431;;;;
2019/04/05 13:20:17;;;;;;;3.7;2.8;;;;;;;13.02;45.75977;923.8195;;;;
2019/04/05 13:22:42;;;;;;;3.2;2.9;;;;;;;12.83;46.19922;923.8141;;;;
2019/04/05 13:25:07;;;;;;;3.4;3.1;;;;;;;12.98;46.60547;923.7985;;;;
2019/04/05 13:27:32;;;;;;;3.3;2.7;;;;;;;13.39;45.41992;923.7001;;;;
2019/04/05 13:29:57;;;;;;;3.2;2.9;;;;;;;14.21;43.69727;923.6788;;;;
2019/04/05 13:32:22;;;;;;;3.2;2.7;;;;;;;14.74;41.56055;923.6725;;;;
2019/04/05 13:34:48;;;;;;;4.3;2.9;;;;;;;14.66;42.35938;923.6838;;;;
2019/04/05 13:37:13;;;;;;;2.8;2.6;;;;;;;14.69;41.24512;923.649;;;;
2019/04/05 13:39:38;;;;;;;3.5;3.2;;;;;;;14.19;43.55762;923.7192;;;;
2019/04/05 13:42:03;;;;;;;3.4;3.1;;;;;;;13.31;45.41113;923.7228;;;;
2019/04/05 13:44:31;;;;;;;3.3;3;;;;;;;13.18;46.04102;923.7176;;;;
2019/04/05 13:46:53;;;;;;;3.4;3.1;;;;;;;13.74;45.66309;923.7534;;;;
2019/04/05 13:49:19;;;;;;;2.9;2.7;;;;;;;14.25;45.37207;923.6345;;;;
2019/04/05 13:51:44;;;;;;;2.8;2.5;;;;;;;14.6;42.20508;923.6227;;;;
2019/04/05 13:54:09;;;;;;;3;2.7;;;;;;;14.69;43.25;923.5515;;;;
2019/04/05 13:56:35;;;;;;;3.4;2.7;;;;;;;15.4;40.20313;923.4515;;;;
2019/04/05 13:59:03;;;;;;;3.7;2.9;;;;;;;15.57;40.42676;923.3801;;;;
2019/04/05 14:01:25;;;;;;;4.8;3.2;;;;;;;14.9;42.69434;923.4124;;;;
2019/04/05 14:03:50;;;;;;;3.3;3;;;;;;;14.67;42.89063;923.4342;;;;
2019/04/05 14:06:15;;;;;;;3.6;2.9;;;;;;;14.35;42.85938;923.4163;;;;
2019/04/05 14:08:40;;;;;;;3.1;2.8;;;;;;;14.21;43.29492;923.3586;;;;
2019/04/05 14:11:06;;;;;;;3.3;3;;;;;;;14.34;43.7002;923.3405;;;;
2019/04/05 14:13:31;;;;;;;3.3;3;;;;;;;14.05;44.1875;923.2735;;;;
2019/04/05 14:15:56;;;;;;;4.4;3.2;;;;;;;13.88;44.1709;923.2609;;;;
2019/04/05 14:18:21;;;;;;;3.4;3;;;;;;;13.82;45.46484;923.2473;;;;
2019/04/05 14:20:46;;;;;;;3.3;3;;;;;;;13.94;44.94824;923.181;;;;
2019/04/05 14:23:11;;;;;;;3.4;3.1;;;;;;;13.57;47.14063;923.2336;;;;
2019/04/05 14:25:36;;;;;;;3.2;2.9;;;;;;;13.67;45.89746;923.2072;;;;
2019/04/05 14:28:01;;;;;;;4.3;3;;;;;;;13.91;45.91211;923.1584;;;;
2019/04/05 14:30:27;;;;;;;3.7;3.3;;;;;;;13.14;46.49609;923.2589;;;;
2019/04/05 14:32:52;;;;;;;3.5;3.2;;;;;;;13.71;47.76563;923.2533;;;;
2019/04/05 14:35:17;;;;;;;3.7;3.4;;;;;;;13.64;46.56152;923.2407;;;;
2019/04/05 14:37:42;;;;;;;3.8;3.4;;;;;;;13.27;47.17676;923.1866;;;;
2019/04/05 14:40:14;;;;;;;4.4;3.5;;;;;;;13.01;47.76953;923.198;;;;
2019/04/05 14:42:39;;;;;;;4.2;3.6;;;;;;;12.72;48.59766;923.2267;;;;
2019/04/05 14:45:04;;;;;;;3.5;3.2;;;;;;;12.48;48.88086;923.1967;;;;
2019/04/05 14:47:29;;;;;;;4.2;3.4;;;;;;;12.1;50.625;923.2108;;;;
2019/04/05 14:49:54;;;;;;;4.1;3.7;;;;;;;12.25;49.85254;923.1447;;;;
2019/04/05 14:52:19;;;;;;;4.6;4.2;;;;;;;11.87;52.17969;923.1193;;;;
2019/04/05 14:54:44;;;;;;;4.4;4;;;;;;;11.91;50.60254;923.1283;;;;
2019/04/05 14:57:09;;;;;;;4.3;3.9;;;;;;;11.78;52.68359;923.0879;;;;
2019/04/05 14:59:34;;;;;;;4.4;4;;;;;;;11.85;50.84863;923.076;;;;
2019/04/05 15:01:59;;;;;;;4.8;4.2;;;;;;;11.99;50.99023;923.0883;;;;
2019/04/05 15:04:25;;;;;;;4.8;4.3;;;;;;;12.16;52.03027;923.0715;;;;
2019/04/05 15:06:50;;;;;;;5.9;4.5;;;;;;;11.71;51.64453;923.0758;;;;
2019/04/05 15:09:15;;;;;;;4.8;4.3;;;;;;;11.71;52.0459;923.0238;;;;
2019/04/05 15:11:40;;;;;;;4.4;4;;;;;;;12;52.43555;922.9844;;;;
2019/04/05 15:14:05;;;;;;;5.3;4.7;;;;;;;11.8;51.63281;923.0087;;;;
2019/04/05 15:16:30;;;;;;;4.7;4.3;;;;;;;11.82;52.63086;923.1436;;;;
2019/04/05 15:18:56;;;;;;;7.5;4.7;;;;;;;12;52.6416;923.1031;;;;
2019/04/05 15:21:21;;;;;;;5.6;4.9;;;;;;;11.91;51.8623;923.199;;;;
2019/04/05 15:23:47;;;;;;;5.8;4.4;;;;;;;12.07;51.32031;923.1675;;;;
2019/04/05 15:26:12;;;;;;;4.9;4.4;;;;;;;11.88;51.30957;923.187;;;;
2019/04/05 15:28:37;;;;;;;5.5;5;;;;;;;11.57;53.19629;923.1395;;;;
2019/04/05 15:31:02;;;;;;;5.7;4.8;;;;;;;11.29;53.05859;923.0966;;;;
2019/04/05 15:33:27;;;;;;;6.3;4.6;;;;;;;11.42;53.96777;923.1192;;;;
2019/04/05 15:35:53;;;;;;;5.6;5.1;;;;;;;11.83;51.77246;923.1465;;;;
2019/04/05 15:38:18;;;;;;;8.6;5.2;;;;;;;11.76;52.25684;923.1378;;;;
2019/04/05 15:40:43;;;;;;;6.1;5.5;;;;;;;11.03;53.62012;923.1542;;;;
2019/04/05 15:43:09;;;;;;;6.4;5.8;;;;;;;11.18;53.47852;923.1573;;;;
2019/04/05 15:45:34;;;;;;;6.6;5.9;;;;;;;10.65;55.20703;923.1566;;;;
2019/04/05 15:47:59;;;;;;;6;5.3;;;;;;;10.68;55.48535;923.1617;;;;
2019/04/05 15:50:27;;;;;;;7.3;6.2;;;;;;;11.03;54.19336;923.1534;;;;
2019/04/05 15:52:52;;;;;;;6.5;5.8;;;;;;;11.04;54.11328;923.1946;;;;
2019/04/05 15:55:17;;;;;;;6.4;5.8;;;;;;;11.07;54.0957;923.2164;;;;
2019/04/05 15:57:42;;;;;;;7.8;6.1;;;;;;;10.57;56.22461;923.187;;;;
2019/04/05 16:00:08;;;;;;;7.8;5.9;;;;;;;10.59;56.55762;923.1763;;;;
2019/04/05 16:02:33;;;;;;;7.9;6.2;;;;;;;10.8;55.44238;923.2068;;;;
2019/04/05 16:04:58;;;;;;;8.7;6.2;;;;;;;10.95;54.77637;923.1632;;;;
2019/04/05 16:07:23;;;;;;;7.3;6.2;;;;;;;11.06;54.61914;923.1291;;;;
2019/04/05 16:09:49;;;;;;;7.3;6.6;;;;;;;11.11;54.19141;923.1783;;;;
2019/04/05 16:12:14;;;;;;;7.2;6.5;;;;;;;11.1;54.23633;923.1705;;;;
2019/04/05 16:14:39;;;;;;;8;6.1;;;;;;;10.79;55.08789;923.2117;;;;
2019/04/05 16:17:06;;;;;;;6.8;6.1;;;;;;;10.52;55.50977;923.2737;;;;
2019/04/05 16:19:42;;;;;;;7.4;6.4;;;;;;;10.41;56.30664;923.2952;;;;
2019/04/05 16:22:07;;;;;;;7.5;6.4;;;;;;;10.65;55.7666;923.2927;;;;
2019/04/05 16:24:32;;;;;;;9.8;6.6;;;;;;;10.5;56.2041;923.2509;;;;
2019/04/05 16:26:58;;;;;;;7.4;6.4;;;;;;;10.51;56.62695;923.2109;;;;
2019/04/05 16:29:23;;;;;;;8.7;6.9;;;;;;;10.89;55.43164;923.2862;;;;
2019/04/05 16:31:48;;;;;;;7.9;7.1;;;;;;;10.97;54.71094;923.2594;;;;
2019/04/05 16:34:13;;;;;;;8.1;7.3;;;;;;;11.12;55.06152;923.2403;;;;
2019/04/05 16:36:38;;;;;;;9.7;6.9;;;;;;;11.29;54.21387;923.2328;;;;
2019/04/05 16:39:07;;;;;;;9.1;7.4;;;;;;;10.69;55.75977;923.2626;;;;
2019/04/05 16:41:28;;;;;;;8.5;7.6;;;;;;;10.56;55.8125;923.2692;;;;